Fontainebleau, Mississippi
Current Conditions -  °F | °C
As of 3:58 PM on Monday 24 Nov 2014 (Local Time) from KBIX Reporting Station
Clear Clear  
Wind Chill: 71°   Ceiling: Unl
Heat Index: 71°   Visibility: 10mi
Dew Point: 51°   Wind: 13mph
Humidity: 49%   Direction: 360°N
Pressure: 29.86"   Gusts: 18mph
Location:  30.418°N, 88.7558°W
Report Text: KBIX 242158Z AUTO 36011G16KT 10SM CLR 22/11 A2986 RMK AO2 SLP114 T02160106
Loading
Personal Weather Stations






























Interactive Weather Map New forecast layout! Learn more

10-Day Weather Forecast

Advertisements
Track Severe Weather on mobile